• Join FlightAware (Why Join?)
  • Login
  • US Flag 
12:07PM EDT


 

Airport Tracker/Info


-or-


 

Live Flight TrackerFlight Track Log ✈ CCA4323 ✈ 19-Jun-2013 ✈ ZUUU / CTU - ZGKL / KWL

Flight Track Log - Related Links

Times and Time Zones

All times are in EDT time to prevent confusion due to time zone crossing. See the CCA4323 flight status page for this flight to view local times or setup timezone preferences in your user account.

Time Position Orientation Groundspeed Altitude Reporting Facility
EDT Latitude Longitude Course Direction KTS MPH feet Rate Location/Type
08:47AM 30.3298 104.2513 133° Southeast  Level Estimated
08:48AM 30.2675 104.3271 134° Southeast  Level Estimated
08:49AM 30.2052 104.4028 134° Southeast  Level Estimated
08:50AM 30.1428 104.4784 134° Southeast  Level Estimated
08:51AM 30.0804 104.5540 134° Southeast  Level Estimated
08:52AM 30.0179 104.6294 134° Southeast  Level Estimated
08:53AM 29.9554 104.7047 134° Southeast  Level Estimated
08:54AM 29.8928 104.7800 134° Southeast  Level Estimated
08:55AM 29.8302 104.8551 134° Southeast  Level Estimated
08:56AM 29.7676 104.9302 134° Southeast  Level Estimated
08:57AM 29.7049 105.0051 134° Southeast  Level Estimated
08:58AM 29.6422 105.0800 134° Southeast  Level Estimated
08:59AM 29.5794 105.1547 134° Southeast  Level Estimated
09:00AM 29.5166 105.2294 134° Southeast  Level Estimated
09:01AM 29.4538 105.3040 134° Southeast  Level Estimated
09:02AM 29.3909 105.3785 134° Southeast  Level Estimated
09:03AM 29.3279 105.4529 134° Southeast  Level Estimated
09:04AM 29.2650 105.5272 134° Southeast  Level Estimated
09:05AM 29.2020 105.6014 134° Southeast  Level Estimated
09:06AM 29.1389 105.6756 134° Southeast  Level Estimated
09:07AM 29.0758 105.7496 134° Southeast  Level Estimated
09:08AM 29.0127 105.8235 134° Southeast  Level Estimated
09:09AM 28.9495 105.8974 134° Southeast  Level Estimated
09:10AM 28.8863 105.9711 134° Southeast  Level Estimated
09:11AM 28.8230 106.0448 134° Southeast  Level Estimated
09:12AM 28.7597 106.1184 134° Southeast  Level Estimated
09:13AM 28.6964 106.1919 134° Southeast  Level Estimated
09:14AM 28.6330 106.2653 135° Southeast  Level Estimated
09:15AM 28.5696 106.3386 135° Southeast  Level Estimated
09:16AM 28.5061 106.4118 135° Southeast  Level Estimated
09:17AM 28.4427 106.4850 135° Southeast  Level Estimated
09:18AM 28.3791 106.5580 135° Southeast  Level Estimated
09:19AM 28.3156 106.6310 135° Southeast  Level Estimated
09:20AM 28.2519 106.7039 135° Southeast  Level Estimated
09:21AM 28.1883 106.7767 135° Southeast  Level Estimated
09:22AM 28.1246 106.8494 135° Southeast  Level Estimated
09:23AM 28.0609 106.9220 135° Southeast  Level Estimated
09:24AM 27.9971 106.9945 135° Southeast  Level Estimated
09:25AM 27.9333 107.0670 135° Southeast  Level Estimated
09:26AM 27.8695 107.1393 135° Southeast  Level Estimated
09:27AM 27.8056 107.2116 135° Southeast  Level Estimated
09:28AM 27.7417 107.2838 135° Southeast  Level Estimated
09:29AM 27.6777 107.3559 135° Southeast  Level Estimated
09:30AM 27.6138 107.4279 135° Southeast  Level Estimated
09:31AM 27.5497 107.4999 135° Southeast  Level Estimated
09:32AM 27.4857 107.5717 135° Southeast  Level Estimated
09:33AM 27.4216 107.6435 135° Southeast  Level Estimated
09:34AM 27.3574 107.7152 135° Southeast  Level Estimated
09:35AM 27.2932 107.7868 135° Southeast  Level Estimated
09:36AM 27.2290 107.8583 135° Southeast  Level Estimated
09:37AM 27.1648 107.9297 135° Southeast  Level Estimated
09:38AM 27.1005 108.0011 135° Southeast  Level Estimated
09:39AM 27.0362 108.0724 135° Southeast  Level Estimated
09:40AM 26.9718 108.1436 135° Southeast  Level Estimated
09:41AM 26.9074 108.2147 135° Southeast  Level Estimated
09:42AM 26.8430 108.2857 135° Southeast  Level Estimated
09:43AM 26.7786 108.3567 135° Southeast  Level Estimated
09:44AM 26.7141 108.4275 136° Southeast  Level Estimated
09:45AM 26.6495 108.4983 136° Southeast  Level Estimated
09:46AM 26.5850 108.5690 136° Southeast  Level Estimated
09:47AM 26.5204 108.6397 136° Southeast  Level Estimated
09:48AM 26.4557 108.7102 136° Southeast  Level Estimated
09:49AM 26.3911 108.7807 136° Southeast  Level Estimated
09:50AM 26.3263 108.8511 136° Southeast  Level Estimated
09:51AM 26.2616 108.9214 136° Southeast  Level Estimated
09:52AM 26.1968 108.9916 136° Southeast  Level Estimated
09:53AM 26.1320 109.0618 136° Southeast  Level Estimated
09:54AM 26.0672 109.1319 136° Southeast  Level Estimated
09:55AM 26.0023 109.2019 136° Southeast  Level Estimated
09:56AM 25.9374 109.2718 136° Southeast  Level Estimated
09:57AM 25.8724 109.3416 136° Southeast  Level Estimated
09:58AM 25.8075 109.4114 136° Southeast  Level Estimated
09:59AM 25.7425 109.4811 136° Southeast  Level Estimated
10:00AM 25.6774 109.5507 136° Southeast  Level Estimated
10:01AM 25.6124 109.6202 136° Southeast  Level Estimated
10:02AM 25.5472 109.6897 136° Southeast  Level Estimated
10:03AM 25.4821 109.7591 136° Southeast  Level Estimated
10:04AM 25.4169 109.8284 136° Southeast  Level Estimated
10:05AM 25.3517 109.8977 136° Southeast  Level Estimated